Time;durP1;ratioP1;P1;durP2;ratioP2;P2;SDS_P1;SDS_P2;PMS_P1;PMS_P2;Temp;Humidity;BMP_temperature;BMP_pressure;BME280_temperature;BME280_humidity;BME280_pressure;Samples;Min_cycle;Max_cycle;Signal;HPM_P1;HPM_P2
2023/04/18 00:00:22;;;;;;;7.38;4.78;;;8.50;99.90;;;;;;4985027;28;20051;-77
2023/04/18 00:02:49;;;;;;;8.25;4.10;;;8.50;99.90;;;;;;4982721;28;20452;-77
2023/04/18 00:05:16;;;;;;;6.85;3.85;;;8.50;99.90;;;;;;4984829;28;20073;-77
2023/04/18 00:07:43;;;;;;;6.00;4.30;;;8.50;99.90;;;;;;4984246;28;20113;-77
2023/04/18 00:10:09;;;;;;;9.27;4.38;;;8.50;99.90;;;;;;4985637;28;20046;-76
2023/04/18 00:12:35;;;;;;;4.20;3.20;;;8.40;99.90;;;;;;5003991;28;20432;-77
2023/04/18 00:15:02;;;;;;;6.07;4.25;;;8.40;99.90;;;;;;5004375;28;20042;-77
2023/04/18 00:17:29;;;;;;;8.27;3.92;;;8.40;99.90;;;;;;5002929;28;20052;-76
2023/04/18 00:19:55;;;;;;;6.90;4.78;;;8.30;99.90;;;;;;5004504;28;20099;-76
2023/04/18 00:22:21;;;;;;;8.70;5.13;;;8.40;99.90;;;;;;4987093;28;20108;-76
2023/04/18 00:24:48;;;;;;;5.53;3.55;;;8.40;99.90;;;;;;5004251;28;20042;-77
2023/04/18 00:27:13;;;;;;;4.82;3.45;;;8.30;99.90;;;;;;5002746;28;20085;-76
2023/04/18 00:29:39;;;;;;;6.93;3.15;;;8.30;99.90;;;;;;5003960;28;20077;-77
2023/04/18 00:32:05;;;;;;;9.73;4.60;;;8.30;99.90;;;;;;5008319;28;20489;-75
2023/04/18 00:34:31;;;;;;;8.20;3.72;;;8.30;99.90;;;;;;5007104;28;20033;-77
2023/04/18 00:36:56;;;;;;;7.60;3.92;;;8.30;99.90;;;;;;5007841;28;20050;-76
2023/04/18 00:39:22;;;;;;;4.13;3.20;;;8.30;99.90;;;;;;5008086;28;20108;-76
2023/04/18 00:41:47;;;;;;;7.85;4.10;;;8.20;99.90;;;;;;5006636;28;20073;-76
2023/04/18 00:44:13;;;;;;;6.63;3.83;;;8.30;99.90;;;;;;5007835;28;20112;-77
2023/04/18 00:46:38;;;;;;;6.43;3.47;;;8.20;99.90;;;;;;5006510;28;20030;-76
2023/04/18 00:49:05;;;;;;;5.28;3.47;;;8.20;99.90;;;;;;5005404;28;20050;-77
2023/04/18 00:51:32;;;;;;;6.03;3.60;;;8.20;99.90;;;;;;5007347;28;20061;-77
2023/04/18 00:53:58;;;;;;;6.78;3.47;;;8.20;99.90;;;;;;5007758;28;20627;-77
2023/04/18 00:56:24;;;;;;;5.38;3.15;;;8.20;99.90;;;;;;5008487;28;20069;-76
2023/04/18 00:58:50;;;;;;;6.82;4.30;;;8.20;99.90;;;;;;4990125;28;20103;-76
2023/04/18 01:01:16;;;;;;;4.32;3.08;;;8.30;99.90;;;;;;5007414;28;20046;-76
2023/04/18 01:03:42;;;;;;;9.45;3.55;;;8.30;99.90;;;;;;5005077;28;20069;-77
2023/04/18 01:06:08;;;;;;;6.57;2.90;;;8.20;99.90;;;;;;4989727;28;20412;-77
2023/04/18 01:08:34;;;;;;;3.67;2.72;;;8.30;99.90;;;;;;5006160;28;20064;-76
2023/04/18 01:11:00;;;;;;;7.70;3.80;;;8.20;99.90;;;;;;5006713;28;20095;-77
2023/04/18 01:13:26;;;;;;;5.38;3.00;;;8.20;99.90;;;;;;5005383;28;20150;-77
2023/04/18 01:15:53;;;;;;;4.45;2.53;;;8.20;99.90;;;;;;5007645;28;20056;-77
2023/04/18 01:18:19;;;;;;;4.65;2.72;;;8.30;99.90;;;;;;5004712;28;20050;-77
2023/04/18 01:20:50;;;;;;;6.70;3.67;;;8.30;99.90;;;;;;5005388;28;21235;-76
2023/04/18 01:23:18;;;;;;;4.03;3.03;;;8.20;99.90;;;;;;5005948;28;20746;-77
2023/04/18 01:25:45;;;;;;;7.75;2.95;;;8.30;99.90;;;;;;5006025;28;20042;-76
2023/04/18 01:28:13;;;;;;;4.00;3.60;;;8.20;99.90;;;;;;5006563;28;20038;-76
2023/04/18 01:30:39;;;;;;;4.75;2.50;;;8.20;99.90;;;;;;5005126;28;20125;-77
2023/04/18 01:33:05;;;;;;;4.47;3.33;;;8.20;99.90;;;;;;5005980;28;20049;-77
2023/04/18 01:35:32;;;;;;;5.07;2.53;;;8.20;99.90;;;;;;5006447;28;20140;-77
2023/04/18 01:37:58;;;;;;;3.92;2.92;;;8.20;99.90;;;;;;5006939;28;20068;-77
2023/04/18 01:40:24;;;;;;;4.75;2.92;;;8.20;99.90;;;;;;5006549;28;20038;-77
2023/04/18 01:42:50;;;;;;;5.28;3.22;;;8.10;99.90;;;;;;5006795;28;20133;-76
2023/04/18 01:45:17;;;;;;;8.73;3.03;;;8.10;99.90;;;;;;5005276;28;20058;-75
2023/04/18 01:47:43;;;;;;;4.32;3.03;;;8.10;99.90;;;;;;4997816;28;20061;-77
2023/04/18 01:50:09;;;;;;;4.10;2.75;;;8.10;99.90;;;;;;4987502;28;20046;-77
2023/04/18 01:52:35;;;;;;;7.72;5.05;;;8.00;99.90;;;;;;4987183;28;20050;-77
2023/04/18 01:55:04;;;;;;;5.80;3.55;;;8.10;99.90;;;;;;4986829;28;20504;-76
2023/04/18 01:57:31;;;;;;;5.70;3.70;;;8.10;99.90;;;;;;4985552;28;20390;-77
2023/04/18 01:59:56;;;;;;;6.82;3.83;;;8.00;99.90;;;;;;4991982;28;20038;-76
2023/04/18 02:02:22;;;;;;;4.85;2.70;;;8.00;99.90;;;;;;5005537;28;20093;-76
2023/04/18 02:04:47;;;;;;;6.82;3.83;;;8.00;99.90;;;;;;5004594;28;20049;-76
2023/04/18 02:07:13;;;;;;;4.18;3.15;;;8.00;99.90;;;;;;5006516;28;20508;-76
2023/04/18 02:09:39;;;;;;;3.35;2.83;;;8.00;99.90;;;;;;5005741;28;20080;-76
2023/04/18 02:12:04;;;;;;;7.10;3.15;;;8.00;99.90;;;;;;5004785;28;20512;-76
2023/04/18 02:14:32;;;;;;;3.42;2.47;;;8.00;99.90;;;;;;5006017;28;20058;-76
2023/04/18 02:17:01;;;;;;;3.85;2.85;;;8.00;99.90;;;;;;5004085;28;20050;-76
2023/04/18 02:19:29;;;;;;;4.88;2.88;;;8.00;99.90;;;;;;5006137;28;20057;-77
2023/04/18 02:21:55;;;;;;;3.63;3.33;;;8.00;99.90;;;;;;5005966;28;20053;-77
2023/04/18 02:24:20;;;;;;;6.30;2.95;;;7.90;99.90;;;;;;5006350;28;20041;-76
2023/04/18 02:26:46;;;;;;;3.17;1.98;;;7.90;99.90;;;;;;5004450;28;20531;-76
2023/04/18 02:29:11;;;;;;;4.13;2.60;;;7.90;99.90;;;;;;5005807;28;20709;-77
2023/04/18 02:31:40;;;;;;;3.80;2.72;;;7.90;99.90;;;;;;5005658;28;20042;-77
2023/04/18 02:34:07;;;;;;;3.42;2.38;;;7.90;99.90;;;;;;5005140;28;20073;-77
2023/04/18 02:36:33;;;;;;;7.60;2.80;;;7.90;99.90;;;;;;5005814;28;20034;-76
2023/04/18 02:38:59;;;;;;;5.47;2.60;;;7.80;99.90;;;;;;5006103;28;20121;-76
2023/04/18 02:41:24;;;;;;;4.43;3.20;;;7.80;99.90;;;;;;5004325;28;20052;-76
2023/04/18 02:43:50;;;;;;;3.50;3.08;;;7.80;99.90;;;;;;5004625;28;20037;-76
2023/04/18 02:46:16;;;;;;;2.88;2.65;;;7.80;99.90;;;;;;5005568;28;20444;-76
2023/04/18 02:48:41;;;;;;;4.32;2.60;;;7.80;99.90;;;;;;5004427;28;20045;-77
2023/04/18 02:51:08;;;;;;;6.05;2.65;;;7.70;99.90;;;;;;5005561;28;20037;-76
2023/04/18 02:53:34;;;;;;;5.53;2.40;;;7.80;99.90;;;;;;4987778;28;20072;-77
2023/04/18 02:56:00;;;;;;;3.08;2.75;;;7.70;99.90;;;;;;5003618;28;20493;-77
2023/04/18 02:58:26;;;;;;;3.25;2.17;;;7.70;99.90;;;;;;5005177;28;20061;-77
2023/04/18 03:00:53;;;;;;;3.00;1.80;;;7.70;99.90;;;;;;5004213;28;20077;-76
2023/04/18 03:03:19;;;;;;;2.78;2.58;;;7.70;99.90;;;;;;5003304;28;20100;-76
2023/04/18 03:05:44;;;;;;;3.47;2.15;;;7.70;99.90;;;;;;5005121;28;20065;-76
2023/04/18 03:08:10;;;;;;;2.63;1.65;;;7.60;99.90;;;;;;5005317;28;20434;-77
2023/04/18 03:10:36;;;;;;;5.53;2.10;;;7.60;99.90;;;;;;4987499;28;20516;-77
2023/04/18 03:13:02;;;;;;;4.70;2.70;;;7.60;99.90;;;;;;5004938;28;20057;-77
2023/04/18 03:15:30;;;;;;;1.60;1.50;;;7.60;99.90;;;;;;5004718;28;20100;-76
2023/04/18 03:17:55;;;;;;;2.17;1.98;;;7.60;99.90;;;;;;5003075;28;20052;-77
2023/04/18 03:20:21;;;;;;;2.08;1.77;;;7.60;99.90;;;;;;5005410;28;20038;-77
2023/04/18 03:22:46;;;;;;;2.83;2.60;;;7.60;99.90;;;;;;5003615;28;20045;-75
2023/04/18 03:25:12;;;;;;;3.20;2.22;;;7.60;99.90;;;;;;5005005;28;20149;-76
2023/04/18 03:27:37;;;;;;;4.25;2.78;;;7.60;99.90;;;;;;5002897;28;20099;-76
2023/04/18 03:30:04;;;;;;;1.55;1.42;;;7.60;99.90;;;;;;5003654;28;20057;-77
2023/04/18 03:32:32;;;;;;;4.00;1.90;;;7.60;99.90;;;;;;5003985;28;20042;-77
2023/04/18 03:34:58;;;;;;;3.28;1.73;;;7.60;99.90;;;;;;5004843;28;20373;-76
2023/04/18 03:37:23;;;;;;;3.08;2.13;;;7.60;99.90;;;;;;4987589;28;20049;-76
2023/04/18 03:39:49;;;;;;;4.03;2.60;;;7.60;99.90;;;;;;5004460;28;20046;-78
2023/04/18 03:42:15;;;;;;;2.90;1.65;;;7.60;99.90;;;;;;5004646;28;20061;-76
2023/04/18 03:44:40;;;;;;;2.20;2.00;;;7.70;99.90;;;;;;5002711;28;20046;-76
2023/04/18 03:47:06;;;;;;;3.42;2.50;;;7.60;99.90;;;;;;5000912;28;20527;-76
2023/04/18 03:49:32;;;;;;;3.17;2.13;;;7.60;99.90;;;;;;4984607;28;20461;-76
2023/04/18 03:51:57;;;;;;;2.40;1.98;;;7.60;99.90;;;;;;5003154;28;20045;-76
2023/04/18 03:54:23;;;;;;;2.40;1.73;;;7.60;99.90;;;;;;5004006;28;20045;-77
2023/04/18 03:56:48;;;;;;;3.88;2.08;;;7.70;99.90;;;;;;5004211;28;20558;-76
2023/04/18 03:59:14;;;;;;;1.83;1.73;;;7.70;99.90;;;;;;5003887;28;20420;-76
2023/04/18 04:01:40;;;;;;;4.00;2.83;;;7.70;99.90;;;;;;5003668;28;20508;-77
2023/04/18 04:04:05;;;;;;;3.50;2.22;;;7.70;99.90;;;;;;5003482;28;20042;-76
2023/04/18 04:06:31;;;;;;;4.03;2.75;;;7.70;99.90;;;;;;5004187;28;20049;-77
2023/04/18 04:08:57;;;;;;;2.25;1.95;;;7.70;99.90;;;;;;4986775;28;20381;-77
2023/04/18 04:11:22;;;;;;;1.42;1.33;;;7.80;99.90;;;;;;5004350;28;20046;-76
2023/04/18 04:13:48;;;;;;;2.45;1.85;;;7.80;99.90;;;;;;5002442;28;20113;-77
2023/04/18 04:16:14;;;;;;;1.67;1.50;;;7.80;99.90;;;;;;5004338;28;20112;-77
2023/04/18 04:18:39;;;;;;;2.95;2.38;;;7.80;99.90;;;;;;4985326;28;20077;-76
2023/04/18 04:21:05;;;;;;;3.10;2.42;;;7.80;99.90;;;;;;5004224;28;20108;-77
2023/04/18 04:23:31;;;;;;;4.53;2.53;;;7.80;99.90;;;;;;5002420;28;20488;-76
2023/04/18 04:25:58;;;;;;;2.90;2.08;;;7.80;99.90;;;;;;5004037;28;20049;-77
2023/04/18 04:28:25;;;;;;;3.20;1.73;;;7.80;99.90;;;;;;5003158;28;20206;-77
2023/04/18 04:30:51;;;;;;;2.20;1.95;;;7.80;99.90;;;;;;5004235;28;20511;-77
2023/04/18 04:33:20;;;;;;;2.92;2.65;;;7.80;99.90;;;;;;5001838;28;20133;-76
2023/04/18 04:35:46;;;;;;;1.80;1.70;;;7.80;99.90;;;;;;5003626;28;20669;-77
2023/04/18 04:38:18;;;;;;;6.50;3.63;;;7.80;99.90;;;;;;5004045;28;20042;-77
2023/04/18 04:40:45;;;;;;;3.40;2.05;;;7.80;99.90;;;;;;5003867;28;20620;-77
2023/04/18 04:43:11;;;;;;;4.57;3.88;;;7.80;99.90;;;;;;5004064;28;20125;-77
2023/04/18 04:45:44;;;;;;;3.38;2.65;;;7.80;99.90;;;;;;4994531;28;20128;-76
2023/04/18 04:48:10;;;;;;;3.03;2.65;;;7.80;99.90;;;;;;5010970;28;20097;-77
2023/04/18 04:50:39;;;;;;;2.45;2.13;;;7.80;99.90;;;;;;5002066;28;20046;-76
2023/04/18 04:53:05;;;;;;;6.97;3.70;;;7.80;99.90;;;;;;5003613;28;20052;-76
2023/04/18 04:55:31;;;;;;;3.15;2.83;;;7.80;99.90;;;;;;5003332;28;20038;-76
2023/04/18 04:57:57;;;;;;;4.97;2.28;;;7.80;99.90;;;;;;5002879;28;20053;-76
2023/04/18 05:00:23;;;;;;;3.83;3.42;;;7.80;99.90;;;;;;5002347;28;20034;-76
2023/04/18 05:02:49;;;;;;;4.97;2.72;;;7.80;99.90;;;;;;5002647;28;20045;-76
2023/04/18 05:05:15;;;;;;;3.20;2.60;;;7.80;99.90;;;;;;5002688;28;20045;-76
2023/04/18 05:07:40;;;;;;;3.15;2.83;;;7.80;99.90;;;;;;5003083;28;20509;-76
2023/04/18 05:10:06;;;;;;;4.60;2.78;;;7.90;99.90;;;;;;5004130;28;20045;-76
2023/04/18 05:12:32;;;;;;;5.85;2.95;;;7.90;99.90;;;;;;5003485;28;20053;-76
2023/04/18 05:14:58;;;;;;;5.95;2.72;;;7.90;99.90;;;;;;5002676;28;20508;-76
2023/04/18 05:17:23;;;;;;;7.35;3.53;;;7.90;99.90;;;;;;5006141;28;20469;-77
2023/04/18 05:19:49;;;;;;;5.28;2.53;;;7.90;99.90;;;;;;5006007;28;20058;-76
2023/04/18 05:22:15;;;;;;;7.93;2.83;;;7.90;99.90;;;;;;5005475;28;20054;-76
2023/04/18 05:24:41;;;;;;;3.15;2.58;;;7.90;99.90;;;;;;4996207;28;20050;-76
2023/04/18 05:27:06;;;;;;;5.15;3.33;;;7.90;99.90;;;;;;5006399;28;20045;-76
2023/04/18 05:29:32;;;;;;;3.00;2.67;;;7.90;99.90;;;;;;5005338;28;20048;-76
2023/04/18 05:31:58;;;;;;;5.40;3.03;;;7.90;99.90;;;;;;5004528;28;20038;-75
2023/04/18 05:34:23;;;;;;;3.75;2.95;;;7.90;99.90;;;;;;5004000;28;20046;-76
2023/04/18 05:36:49;;;;;;;6.25;4.38;;;7.90;99.90;;;;;;4999051;28;20029;-76
2023/04/18 05:39:15;;;;;;;5.13;3.58;;;7.90;99.90;;;;;;5006798;28;20137;-75
2023/04/18 05:41:41;;;;;;;8.13;3.20;;;7.90;99.90;;;;;;5000012;28;20504;-76
2023/04/18 05:44:07;;;;;;;4.88;3.05;;;8.00;99.90;;;;;;5002379;28;20085;-76
2023/04/18 05:46:33;;;;;;;5.60;3.83;;;8.00;99.90;;;;;;4998766;28;20453;-76
2023/04/18 05:48:58;;;;;;;4.75;3.40;;;8.00;99.90;;;;;;5006288;28;20049;-74
2023/04/18 05:51:25;;;;;;;4.55;3.28;;;8.00;99.90;;;;;;5000087;28;20066;-75
2023/04/18 05:53:50;;;;;;;3.53;2.78;;;8.00;99.90;;;;;;5000583;28;20811;-76
2023/04/18 05:56:16;;;;;;;5.78;2.97;;;8.00;99.90;;;;;;5001679;28;20041;-79
2023/04/18 05:58:43;;;;;;;6.05;4.32;;;8.00;99.90;;;;;;5002456;28;20117;-75
2023/04/18 06:01:09;;;;;;;5.20;3.92;;;8.00;99.90;;;;;;5004755;28;20611;-75
2023/04/18 06:03:35;;;;;;;3.70;2.95;;;8.00;99.90;;;;;;5004676;28;20048;-75
2023/04/18 06:06:00;;;;;;;4.68;3.10;;;8.00;99.90;;;;;;5005813;28;20481;-75
2023/04/18 06:08:26;;;;;;;4.50;2.50;;;8.00;99.90;;;;;;5002287;28;20093;-76
2023/04/18 06:10:51;;;;;;;3.17;2.85;;;8.10;99.90;;;;;;5004211;28;20085;-75
2023/04/18 06:13:17;;;;;;;3.53;2.25;;;8.10;99.90;;;;;;5005596;28;20108;-75
2023/04/18 06:15:43;;;;;;;5.25;3.88;;;8.10;99.90;;;;;;5005189;28;20584;-75
2023/04/18 06:18:08;;;;;;;3.25;2.22;;;8.10;99.90;;;;;;5003338;28;20042;-76
2023/04/18 06:20:34;;;;;;;6.88;3.63;;;8.10;99.90;;;;;;5004575;28;20444;-75
2023/04/18 06:22:59;;;;;;;5.45;4.32;;;8.10;99.90;;;;;;5004287;28;20109;-75
2023/04/18 06:25:25;;;;;;;7.70;3.92;;;8.10;99.90;;;;;;5004721;28;20334;-75
2023/04/18 06:27:51;;;;;;;4.60;3.67;;;8.10;99.90;;;;;;5003359;28;20392;-74
2023/04/18 06:30:20;;;;;;;4.72;3.05;;;8.10;99.90;;;;;;5005312;28;20397;-75
2023/04/18 06:32:46;;;;;;;3.95;3.00;;;8.20;99.90;;;;;;5003518;28;20056;-75
2023/04/18 06:35:11;;;;;;;6.82;3.92;;;8.20;99.90;;;;;;4986807;28;20050;-75
2023/04/18 06:37:37;;;;;;;6.25;3.50;;;8.20;99.90;;;;;;5004269;28;20395;-75
2023/04/18 06:40:03;;;;;;;4.20;3.47;;;8.20;99.90;;;;;;5005107;28;20042;-75
2023/04/18 06:42:29;;;;;;;5.07;3.60;;;8.20;99.90;;;;;;5002794;28;20046;-75
2023/04/18 06:44:54;;;;;;;5.60;3.30;;;8.20;99.90;;;;;;5003386;28;20060;-75
2023/04/18 06:47:21;;;;;;;5.10;3.22;;;8.30;99.90;;;;;;5003322;28;20497;-75
2023/04/18 06:49:47;;;;;;;6.07;3.42;;;8.30;99.90;;;;;;5003556;28;20052;-75
2023/04/18 06:52:12;;;;;;;4.55;3.28;;;8.30;99.90;;;;;;5002950;28;20038;-74
2023/04/18 06:54:38;;;;;;;5.40;3.47;;;8.30;99.90;;;;;;4985190;28;20053;-75
2023/04/18 06:57:03;;;;;;;4.30;2.70;;;8.30;99.90;;;;;;4992164;28;20034;-75
2023/04/18 06:59:29;;;;;;;5.03;3.10;;;8.30;99.90;;;;;;4979451;28;20105;-75
2023/04/18 07:01:55;;;;;;;4.45;2.65;;;8.30;99.90;;;;;;4984263;28;20230;-75
2023/04/18 07:04:20;;;;;;;4.05;2.58;;;8.30;99.90;;;;;;4985417;28;20480;-76
2023/04/18 07:06:46;;;;;;;5.00;3.00;;;8.30;99.90;;;;;;4997846;28;20087;-74
2023/04/18 07:09:11;;;;;;;2.75;2.00;;;8.30;99.90;;;;;;4984657;28;20101;-74
2023/04/18 07:11:38;;;;;;;6.32;2.58;;;8.40;99.90;;;;;;4990437;28;20115;-75
2023/04/18 07:14:03;;;;;;;3.63;2.72;;;8.40;99.90;;;;;;5002857;28;20042;-76
2023/04/18 07:16:29;;;;;;;5.90;3.00;;;8.40;99.90;;;;;;5001914;28;20116;-75
2023/04/18 07:18:55;;;;;;;3.13;1.98;;;8.40;99.90;;;;;;5004058;28;20061;-75
2023/04/18 07:21:20;;;;;;;4.20;1.60;;;8.40;99.90;;;;;;4995011;28;20460;-75
2023/04/18 07:23:46;;;;;;;6.28;2.63;;;8.40;99.90;;;;;;4997300;28;20104;-75
2023/04/18 07:26:12;;;;;;;2.15;1.90;;;8.40;99.90;;;;;;4999843;28;20524;-75
2023/04/18 07:28:38;;;;;;;3.80;2.15;;;8.50;99.90;;;;;;4998798;28;20518;-74
2023/04/18 07:31:03;;;;;;;3.95;2.55;;;8.50;99.90;;;;;;4996465;28;20041;-75
2023/04/18 07:33:33;;;;;;;4.95;2.65;;;8.50;99.90;;;;;;4981581;28;20046;-75
2023/04/18 07:36:00;;;;;;;6.32;3.45;;;8.50;99.90;;;;;;4993264;28;20532;-76
2023/04/18 07:38:26;;;;;;;6.97;3.03;;;8.50;99.90;;;;;;5003706;28;20073;-75
2023/04/18 07:40:59;;;;;;;3.80;2.28;;;8.60;99.90;;;;;;5003095;28;20038;-75
2023/04/18 07:43:25;;;;;;;5.65;2.83;;;8.50;99.90;;;;;;5003350;28;20124;-76
2023/04/18 07:45:52;;;;;;;4.80;2.95;;;8.60;99.90;;;;;;5003766;28;20580;-75
2023/04/18 07:48:17;;;;;;;6.38;3.95;;;8.60;99.90;;;;;;4988610;28;20085;-75
2023/04/18 07:50:43;;;;;;;3.92;2.85;;;8.60;99.90;;;;;;4983863;28;20382;-74
2023/04/18 07:53:08;;;;;;;5.40;3.20;;;8.60;99.90;;;;;;4996368;28;20041;-75
2023/04/18 07:55:34;;;;;;;3.88;2.78;;;8.60;99.90;;;;;;5001959;28;20058;-75
2023/04/18 07:58:00;;;;;;;4.18;3.05;;;8.70;99.90;;;;;;5002018;28;20065;-74
2023/04/18 08:00:26;;;;;;;3.63;2.63;;;8.60;99.90;;;;;;4994353;28;20278;-76
2023/04/18 08:02:51;;;;;;;5.80;3.80;;;8.70;99.90;;;;;;4983541;28;20486;-75
2023/04/18 08:05:18;;;;;;;2.42;2.15;;;8.80;99.90;;;;;;4997338;28;20046;-74
2023/04/18 08:07:44;;;;;;;3.67;3.17;;;8.80;99.90;;;;;;5001011;28;20045;-75
2023/04/18 08:10:10;;;;;;;6.03;3.60;;;8.80;99.90;;;;;;5001246;28;20412;-75
2023/04/18 08:12:36;;;;;;;4.45;2.63;;;8.80;99.90;;;;;;5003005;28;20558;-74
2023/04/18 08:15:02;;;;;;;4.28;2.47;;;8.90;99.90;;;;;;5002960;28;20038;-75
2023/04/18 08:17:28;;;;;;;4.18;2.15;;;8.90;99.90;;;;;;5000951;28;20042;-75
2023/04/18 08:19:54;;;;;;;6.18;3.35;;;8.90;99.90;;;;;;5003071;28;20057;-75
2023/04/18 08:22:19;;;;;;;3.33;2.67;;;8.90;99.90;;;;;;5001844;28;20033;-75
2023/04/18 08:24:45;;;;;;;3.63;2.80;;;9.00;99.90;;;;;;5002800;28;20491;-74
2023/04/18 08:27:10;;;;;;;6.05;2.90;;;9.00;99.90;;;;;;5003109;28;20050;-75
2023/04/18 08:29:36;;;;;;;3.70;2.40;;;9.10;99.90;;;;;;5002209;28;20042;-75
2023/04/18 08:32:05;;;;;;;5.32;2.85;;;9.10;99.90;;;;;;5001722;28;20375;-75
2023/04/18 08:34:32;;;;;;;4.57;4.18;;;9.10;99.90;;;;;;5002474;28;20054;-75
2023/04/18 08:36:58;;;;;;;5.65;2.30;;;9.10;99.90;;;;;;5001211;28;20053;-75
2023/04/18 08:39:24;;;;;;;5.85;2.83;;;9.10;99.90;;;;;;5003271;28;20326;-75
2023/04/18 08:41:58;;;;;;;5.22;2.75;;;9.20;99.90;;;;;;5001835;28;20505;-74
2023/04/18 08:44:27;;;;;;;4.70;3.22;;;9.20;99.90;;;;;;4985158;28;20050;-75
2023/04/18 08:46:53;;;;;;;6.50;3.30;;;9.20;99.90;;;;;;5001523;28;20107;-75
2023/04/18 08:49:22;;;;;;;6.60;4.18;;;9.30;99.90;;;;;;4997798;28;20053;-75
2023/04/18 08:51:52;;;;;;;2.70;2.45;;;9.30;99.90;;;;;;4986107;28;20220;-75
2023/04/18 08:54:19;;;;;;;4.25;1.98;;;9.40;99.90;;;;;;4986079;28;20050;-75
2023/04/18 08:56:45;;;;;;;5.10;3.30;;;9.40;99.90;;;;;;4986432;28;20465;-75
2023/04/18 08:59:11;;;;;;;3.58;2.90;;;9.40;99.90;;;;;;4986770;28;20121;-75
2023/04/18 09:01:55;;;;;;;3.90;2.13;;;9.50;99.90;;;;;;4985532;28;20053;-75
2023/04/18 09:04:38;;;;;;;2.92;2.60;;;9.50;99.90;;;;;;4987148;28;20915;-75
2023/04/18 09:07:08;;;;;;;6.35;3.00;;;9.50;99.90;;;;;;4986197;28;20576;-75
2023/04/18 09:09:50;;;;;;;3.38;2.10;;;9.60;99.90;;;;;;4968908;28;20536;-75
2023/04/18 09:12:22;;;;;;;4.18;2.33;;;9.60;99.90;;;;;;4985287;28;20523;-74
2023/04/18 09:14:56;;;;;;;2.80;2.33;;;9.70;99.90;;;;;;4986459;28;20042;-75
2023/04/18 09:17:44;;;;;;;5.25;2.85;;;9.70;99.90;;;;;;4985925;28;20327;-75
2023/04/18 09:20:11;;;;;;;4.55;2.80;;;9.70;99.90;;;;;;4985407;28;20042;-75
2023/04/18 09:22:53;;;;;;;4.20;3.05;;;9.70;99.90;;;;;;4984779;28;20074;-74
2023/04/18 09:25:51;;;;;;;6.03;3.53;;;9.70;99.90;;;;;;4986629;28;20484;-75
2023/04/18 09:28:26;;;;;;;3.70;2.42;;;9.80;99.90;;;;;;4986937;28;20089;-75
2023/04/18 09:30:53;;;;;;;4.15;2.30;;;9.80;99.90;;;;;;4986286;28;20120;-75
2023/04/18 09:33:27;;;;;;;5.03;2.50;;;9.80;99.90;;;;;;4986187;28;20030;-75
2023/04/18 09:35:53;;;;;;;5.68;2.05;;;9.80;99.90;;;;;;4986747;28;20034;-75
2023/04/18 09:38:19;;;;;;;4.22;2.20;;;9.80;99.90;;;;;;5001591;28;20050;-75
2023/04/18 09:40:44;;;;;;;3.50;2.08;;;9.90;99.90;;;;;;4985461;28;20137;-75
2023/04/18 09:43:20;;;;;;;4.55;2.42;;;9.90;99.90;;;;;;4986075;28;20037;-75
2023/04/18 09:45:49;;;;;;;5.53;3.17;;;9.90;99.90;;;;;;4984902;28;20056;-75
2023/04/18 09:48:15;;;;;;;3.63;2.15;;;10.00;99.90;;;;;;4996775;28;20141;-75
2023/04/18 09:50:42;;;;;;;3.28;2.90;;;10.00;99.90;;;;;;5003848;28;20125;-75
2023/04/18 09:53:09;;;;;;;5.00;2.00;;;10.00;99.90;;;;;;5005256;28;20065;-75
2023/04/18 09:55:35;;;;;;;8.38;3.45;;;10.10;99.90;;;;;;4987465;28;20042;-75
2023/04/18 09:58:03;;;;;;;7.15;3.25;;;10.10;99.90;;;;;;5005619;28;20298;-75
2023/04/18 10:00:30;;;;;;;3.75;2.85;;;10.10;99.90;;;;;;5004586;28;20038;-75
2023/04/18 10:03:01;;;;;;;4.40;2.72;;;10.10;99.90;;;;;;5003392;28;20046;-75
2023/04/18 10:05:30;;;;;;;3.08;2.25;;;10.20;99.90;;;;;;5005193;28;20056;-75
2023/04/18 10:07:57;;;;;;;4.47;3.00;;;10.20;99.90;;;;;;5004828;28;20046;-74
2023/04/18 10:10:23;;;;;;;6.72;3.35;;;10.20;99.90;;;;;;5004408;28;20287;-75
2023/04/18 10:12:51;;;;;;;3.95;2.80;;;10.20;99.90;;;;;;5003380;28;20057;-75
2023/04/18 10:15:20;;;;;;;4.43;2.83;;;10.20;99.90;;;;;;5005044;28;20049;-75
2023/04/18 10:17:53;;;;;;;3.75;2.08;;;10.30;99.90;;;;;;5003947;28;20052;-75
2023/04/18 10:20:22;;;;;;;3.45;3.13;;;10.30;99.90;;;;;;5004654;28;20497;-75
2023/04/18 10:22:48;;;;;;;3.63;1.92;;;10.40;99.90;;;;;;5005012;28;20100;-75
2023/04/18 10:25:34;;;;;;;3.55;1.90;;;10.40;99.90;;;;;;5003587;28;20045;-75
2023/04/18 10:28:01;;;;;;;4.88;3.40;;;10.40;99.90;;;;;;4987240;28;20046;-75
2023/04/18 10:30:39;;;;;;;4.20;1.92;;;10.50;99.90;;;;;;5004370;28;20073;-75
2023/04/18 10:33:44;;;;;;;3.08;2.72;;;10.50;99.90;;;;;;5004866;28;20034;-75
2023/04/18 10:36:11;;;;;;;2.42;1.50;;;10.50;99.90;;;;;;5003160;28;20504;-74
2023/04/18 10:38:43;;;;;;;5.03;2.42;;;10.60;99.90;;;;;;5004265;28;20057;-75
2023/04/18 10:41:20;;;;;;;4.75;2.20;;;10.60;99.90;;;;;;5002917;28;20073;-75
2023/04/18 10:44:05;;;;;;;5.88;2.28;;;10.60;99.90;;;;;;5004633;28;20064;-75
2023/04/18 10:46:35;;;;;;;4.70;3.03;;;10.60;99.90;;;;;;5002147;28;20046;-75
2023/04/18 10:49:22;;;;;;;3.50;2.03;;;10.60;99.90;;;;;;4986357;28;20042;-75
2023/04/18 10:51:50;;;;;;;3.38;1.98;;;10.70;99.90;;;;;;4984699;28;20069;-75
2023/04/18 10:54:35;;;;;;;5.82;1.90;;;10.70;99.90;;;;;;4984810;28;20497;-74
2023/04/18 10:57:03;;;;;;;3.83;1.88;;;10.80;99.90;;;;;;4984796;28;20393;-75
2023/04/18 10:59:30;;;;;;;3.47;1.90;;;10.80;99.90;;;;;;4984480;28;20039;-75
2023/04/18 11:02:02;;;;;;;3.28;2.03;;;10.80;99.90;;;;;;4998341;28;20043;-75
2023/04/18 11:04:27;;;;;;;3.88;2.10;;;10.80;99.90;;;;;;4984548;28;20329;-75
2023/04/18 11:06:57;;;;;;;4.35;2.13;;;10.90;99.90;;;;;;4985185;28;20489;-75
2023/04/18 11:09:23;;;;;;;2.88;1.75;;;10.90;99.90;;;;;;4983374;28;20468;-75
2023/04/18 11:12:04;;;;;;;4.95;2.17;;;10.90;99.90;;;;;;4999140;28;20054;-75
2023/04/18 11:14:47;;;;;;;3.67;2.45;;;11.00;99.90;;;;;;4984058;28;20042;-75
2023/04/18 11:17:22;;;;;;;2.80;2.17;;;11.00;99.90;;;;;;4998639;28;20109;-75
2023/04/18 11:19:48;;;;;;;3.35;2.38;;;11.10;99.90;;;;;;4984046;28;20105;-75
2023/04/18 11:22:14;;;;;;;3.97;2.22;;;11.10;99.90;;;;;;4984273;28;20060;-75
2023/04/18 11:24:40;;;;;;;4.20;2.47;;;11.10;99.90;;;;;;4983868;28;20078;-75
2023/04/18 11:27:09;;;;;;;3.10;2.05;;;11.20;99.90;;;;;;4992691;28;20068;-76
2023/04/18 11:29:34;;;;;;;4.57;2.55;;;11.20;99.90;;;;;;4998838;28;20500;-77
2023/04/18 11:32:00;;;;;;;2.92;1.92;;;11.20;99.90;;;;;;5003882;28;20129;-76
2023/04/18 11:34:30;;;;;;;4.10;2.38;;;11.30;99.90;;;;;;5003002;28;20475;-77
2023/04/18 11:36:55;;;;;;;3.70;2.25;;;11.20;99.90;;;;;;5000778;28;20038;-78
2023/04/18 11:39:21;;;;;;;3.15;2.25;;;11.20;99.90;;;;;;5003628;28;20053;-77
2023/04/18 11:41:49;;;;;;;2.78;2.05;;;11.20;99.90;;;;;;5002001;28;20037;-77
2023/04/18 11:44:25;;;;;;;3.78;1.77;;;11.20;99.90;;;;;;5003937;28;20057;-77
2023/04/18 11:46:54;;;;;;;4.13;2.53;;;11.20;99.90;;;;;;5003238;28;20065;-77
2023/04/18 11:49:31;;;;;;;3.97;2.25;;;11.30;99.90;;;;;;4995490;28;20029;-78
2023/04/18 11:51:58;;;;;;;2.40;1.80;;;11.30;99.90;;;;;;5002711;28;20443;-78
2023/04/18 11:54:43;;;;;;;4.85;2.70;;;11.30;99.90;;;;;;5004413;28;20034;-77
2023/04/18 11:57:27;;;;;;;4.55;2.55;;;11.40;99.90;;;;;;5003774;28;20076;-78
2023/04/18 11:59:58;;;;;;;3.97;2.30;;;11.40;99.90;;;;;;5003910;28;20046;-77
2023/04/18 12:02:26;;;;;;;3.83;2.35;;;11.40;99.90;;;;;;5000942;28;20060;-77
2023/04/18 12:04:57;;;;;;;3.40;2.05;;;11.40;99.90;;;;;;5004496;28;20041;-78
2023/04/18 12:07:53;;;;;;;3.60;2.67;;;11.50;99.90;;;;;;5002520;28;20046;-77
2023/04/18 12:10:18;;;;;;;2.85;1.83;;;11.50;99.90;;;;;;4981299;28;20289;-78
2023/04/18 12:12:48;;;;;;;2.53;2.33;;;11.50;99.90;;;;;;4996740;28;21134;-77
2023/04/18 12:15:15;;;;;;;2.97;1.75;;;11.60;99.90;;;;;;4997853;28;20132;-78
2023/04/18 12:17:43;;;;;;;4.13;2.42;;;11.60;99.90;;;;;;4984699;28;20186;-81
2023/04/18 12:20:09;;;;;;;2.47;2.10;;;11.60;99.90;;;;;;5002919;28;20046;-76
2023/04/18 12:22:41;;;;;;;4.43;2.08;;;11.60;99.90;;;;;;5002645;28;20093;-81
2023/04/18 12:25:24;;;;;;;4.57;2.10;;;11.70;99.90;;;;;;5001273;28;20104;-79
2023/04/18 12:28:05;;;;;;;2.80;2.33;;;11.70;99.90;;;;;;4985050;28;20042;-81
2023/04/18 12:30:32;;;;;;;3.00;2.17;;;11.80;99.90;;;;;;5001187;28;20108;-78
2023/04/18 12:33:01;;;;;;;2.95;1.80;;;11.80;99.90;;;;;;4982322;28;20041;-81
2023/04/18 12:35:27;;;;;;;4.57;2.53;;;11.80;99.90;;;;;;5002673;28;20046;-78
2023/04/18 12:37:54;;;;;;;4.28;1.98;;;11.90;99.90;;;;;;5003303;28;20038;-79
2023/04/18 12:40:21;;;;;;;2.72;2.03;;;11.90;99.90;;;;;;4993894;28;20080;-81
2023/04/18 12:42:48;;;;;;;3.97;2.72;;;11.90;99.90;;;;;;4987722;28;20075;-80
2023/04/18 12:45:14;;;;;;;4.55;2.58;;;11.90;99.90;;;;;;4973919;28;20057;-80
2023/04/18 12:47:42;;;;;;;3.90;2.65;;;12.00;99.90;;;;;;4998116;28;20049;-78
2023/04/18 12:50:09;;;;;;;5.75;2.65;;;12.00;99.90;;;;;;5001605;28;20107;-80
2023/04/18 12:52:37;;;;;;;4.00;3.45;;;12.00;99.90;;;;;;4997346;28;20038;-80
2023/04/18 12:55:04;;;;;;;4.40;2.60;;;12.00;99.90;;;;;;5000018;28;20041;-79
2023/04/18 12:57:30;;;;;;;3.58;3.03;;;12.00;99.90;;;;;;4984884;28;20119;-84